今朝の成田(2017/05/19)

CPA524/B-HNE(B773)

VNL100/JA11VA(A320)

ANA832/JA613A(B763)

CPA006/B-LIB(B744)

JJP12/JA14JJ(A320)

FDX5392/N884FD(B77L)

JJP40/JA06JJ(A320)

AMX058/XA-AMR(B788)

ANA818/JA840A(B788)

FDX15/N858FD(B77L)

JAL724/JA868J(B789)

FDX31/N890FD(B77L)

ANA814/JA620A(B763) with winglet

JAL740/JA843J(B788)

JAL752/JA844J(B788)

ANA179/JA827A(B788)

NCA228/JA08KZ(B744)

JAL726/JA865J(B789)

MAS88/9M-MTA(A333)

PAC213/N498MC(B744)

CRK606/B-LPI(A320)

RJAA 182100Z 00000KT 3000 R34L/P1800N R34R/0300V0400N BCFG BR FEW001 14/14 Q1017 BECMG 8000 NSW

RJAA 182200Z VRB01KT 9999 FEW020 18/16 Q1017 NOSIG RMK 1CU020 A3005

今朝の成田は晴れているようです。